sensor_id;sensor_type;location;lat;lon;timestamp;temperature;humidity
5631;DHT22;2837;50.990;7.124;2023-02-28T06:01:37;2.60;93.20
5631;DHT22;2837;50.990;7.124;2023-02-28T06:04:04;2.60;97.90
5631;DHT22;2837;50.990;7.124;2023-02-28T06:06:30;2.60;96.30
5631;DHT22;2837;50.990;7.124;2023-02-28T06:08:56;2.60;90.00
5631;DHT22;2837;50.990;7.124;2023-02-28T06:11:22;2.60;84.00
5631;DHT22;2837;50.990;7.124;2023-02-28T06:13:57;2.60;86.70
5631;DHT22;2837;50.990;7.124;2023-02-28T06:16:25;2.60;90.70
5631;DHT22;2837;50.990;7.124;2023-02-28T06:18:51;2.70;85.70
5631;DHT22;2837;50.990;7.124;2023-02-28T06:21:18;2.70;85.40
5631;DHT22;2837;50.990;7.124;2023-02-28T06:23:44;2.60;87.80
5631;DHT22;2837;50.990;7.124;2023-02-28T06:26:10;2.70;84.30
5631;DHT22;2837;50.990;7.124;2023-02-28T06:28:35;2.60;79.60
5631;DHT22;2837;50.990;7.124;2023-02-28T06:31:09;2.60;82.90
5631;DHT22;2837;50.990;7.124;2023-02-28T06:33:36;2.60;87.20
5631;DHT22;2837;50.990;7.124;2023-02-28T06:36:04;2.60;82.20
5631;DHT22;2837;50.990;7.124;2023-02-28T06:38:30;2.60;80.50
5631;DHT22;2837;50.990;7.124;2023-02-28T06:40:56;2.60;77.40
5631;DHT22;2837;50.990;7.124;2023-02-28T06:43:23;2.60;75.90
5631;DHT22;2837;50.990;7.124;2023-02-28T06:45:49;2.60;76.60
5631;DHT22;2837;50.990;7.124;2023-02-28T06:48:16;2.60;77.90
5631;DHT22;2837;50.990;7.124;2023-02-28T06:50:41;2.60;80.10
5631;DHT22;2837;50.990;7.124;2023-02-28T06:53:07;2.60;76.80
5631;DHT22;2837;50.990;7.124;2023-02-28T06:55:32;2.80;72.80
5631;DHT22;2837;50.990;7.124;2023-02-28T06:57:58;2.70;72.10
5631;DHT22;2837;50.990;7.124;2023-02-28T07:00:24;2.70;71.20
5631;DHT22;2837;50.990;7.124;2023-02-28T07:02:50;2.70;71.80
5631;DHT22;2837;50.990;7.124;2023-02-28T07:05:16;2.70;70.60
5631;DHT22;2837;50.990;7.124;2023-02-28T07:07:41;2.70;70.40
5631;DHT22;2837;50.990;7.124;2023-02-28T07:10:10;2.70;69.20
5631;DHT22;2837;50.990;7.124;2023-02-28T07:12:36;2.70;70.30
5631;DHT22;2837;50.990;7.124;2023-02-28T07:15:03;2.70;68.70
5631;DHT22;2837;50.990;7.124;2023-02-28T07:17:28;2.80;68.40
5631;DHT22;2837;50.990;7.124;2023-02-28T07:19:54;2.80;67.00
5631;DHT22;2837;50.990;7.124;2023-02-28T07:22:19;2.90;66.30
5631;DHT22;2837;50.990;7.124;2023-02-28T07:24:45;2.80;65.80
5631;DHT22;2837;50.990;7.124;2023-02-28T07:27:10;2.80;66.10
5631;DHT22;2837;50.990;7.124;2023-02-28T07:29:36;2.90;66.00
5631;DHT22;2837;50.990;7.124;2023-02-28T07:32:02;2.90;64.40
5631;DHT22;2837;50.990;7.124;2023-02-28T07:34:28;2.90;64.30
5631;DHT22;2837;50.990;7.124;2023-02-28T07:36:54;2.90;64.20
5631;DHT22;2837;50.990;7.124;2023-02-28T07:39:21;2.90;63.50
5631;DHT22;2837;50.990;7.124;2023-02-28T07:41:46;2.90;64.00
5631;DHT22;2837;50.990;7.124;2023-02-28T07:44:12;3.00;63.40
5631;DHT22;2837;50.990;7.124;2023-02-28T07:46:38;3.00;62.60
5631;DHT22;2837;50.990;7.124;2023-02-28T07:49:04;3.00;61.30
5631;DHT22;2837;50.990;7.124;2023-02-28T07:51:30;3.10;61.40
5631;DHT22;2837;50.990;7.124;2023-02-28T07:53:56;3.10;61.10
5631;DHT22;2837;50.990;7.124;2023-02-28T07:56:22;3.10;60.60
5631;DHT22;2837;50.990;7.124;2023-02-28T07:58:48;3.20;60.10
5631;DHT22;2837;50.990;7.124;2023-02-28T08:01:14;3.20;59.80
5631;DHT22;2837;50.990;7.124;2023-02-28T08:03:40;3.20;60.30
5631;DHT22;2837;50.990;7.124;2023-02-28T08:06:07;3.20;58.70
5631;DHT22;2837;50.990;7.124;2023-02-28T08:08:33;3.30;58.90
5631;DHT22;2837;50.990;7.124;2023-02-28T08:11:02;3.30;59.20
5631;DHT22;2837;50.990;7.124;2023-02-28T08:13:29;3.30;58.90
5631;DHT22;2837;50.990;7.124;2023-02-28T08:15:56;3.30;58.00
5631;DHT22;2837;50.990;7.124;2023-02-28T08:18:22;3.40;57.90
5631;DHT22;2837;50.990;7.124;2023-02-28T08:20:48;3.40;57.20
5631;DHT22;2837;50.990;7.124;2023-02-28T08:23:14;3.30;56.70
5631;DHT22;2837;50.990;7.124;2023-02-28T08:25:40;3.30;56.40
5631;DHT22;2837;50.990;7.124;2023-02-28T08:28:05;3.40;56.90
5631;DHT22;2837;50.990;7.124;2023-02-28T08:30:31;3.50;57.00
5631;DHT22;2837;50.990;7.124;2023-02-28T08:32:56;3.50;56.80
5631;DHT22;2837;50.990;7.124;2023-02-28T08:35:22;3.50;56.50
5631;DHT22;2837;50.990;7.124;2023-02-28T08:37:48;3.60;55.90
5631;DHT22;2837;50.990;7.124;2023-02-28T08:40:14;3.60;56.10
5631;DHT22;2837;50.990;7.124;2023-02-28T08:42:47;3.70;55.80
5631;DHT22;2837;50.990;7.124;2023-02-28T08:45:14;3.70;54.70
5631;DHT22;2837;50.990;7.124;2023-02-28T08:47:40;3.80;53.50
5631;DHT22;2837;50.990;7.124;2023-02-28T08:50:06;3.80;53.70
5631;DHT22;2837;50.990;7.124;2023-02-28T08:52:32;3.80;53.20
5631;DHT22;2837;50.990;7.124;2023-02-28T08:54:58;3.90;52.90
5631;DHT22;2837;50.990;7.124;2023-02-28T08:57:23;3.90;52.90
5631;DHT22;2837;50.990;7.124;2023-02-28T08:59:51;3.90;53.10
5631;DHT22;2837;50.990;7.124;2023-02-28T09:02:17;3.90;53.90
5631;DHT22;2837;50.990;7.124;2023-02-28T09:04:43;3.90;54.00
5631;DHT22;2837;50.990;7.124;2023-02-28T09:07:11;4.00;52.80
5631;DHT22;2837;50.990;7.124;2023-02-28T09:09:36;4.10;52.40
5631;DHT22;2837;50.990;7.124;2023-02-28T09:12:02;4.10;51.50
5631;DHT22;2837;50.990;7.124;2023-02-28T09:14:28;4.10;51.60
5631;DHT22;2837;50.990;7.124;2023-02-28T09:16:54;4.20;51.00
5631;DHT22;2837;50.990;7.124;2023-02-28T09:19:20;4.20;50.80
5631;DHT22;2837;50.990;7.124;2023-02-28T09:21:45;4.10;50.20
5631;DHT22;2837;50.990;7.124;2023-02-28T09:24:11;4.10;50.80
5631;DHT22;2837;50.990;7.124;2023-02-28T09:26:39;4.20;50.70
5631;DHT22;2837;50.990;7.124;2023-02-28T09:29:05;4.20;50.50
5631;DHT22;2837;50.990;7.124;2023-02-28T09:31:32;4.30;50.90
5631;DHT22;2837;50.990;7.124;2023-02-28T09:33:58;4.30;51.00
5631;DHT22;2837;50.990;7.124;2023-02-28T09:36:25;4.40;51.40
5631;DHT22;2837;50.990;7.124;2023-02-28T09:38:51;4.40;50.90
5631;DHT22;2837;50.990;7.124;2023-02-28T09:41:22;4.50;50.80
5631;DHT22;2837;50.990;7.124;2023-02-28T09:43:57;4.50;50.50
5631;DHT22;2837;50.990;7.124;2023-02-28T09:46:33;4.50;50.10
5631;DHT22;2837;50.990;7.124;2023-02-28T09:49:06;4.60;50.80
5631;DHT22;2837;50.990;7.124;2023-02-28T09:54:21;4.60;49.30
5631;DHT22;2837;50.990;7.124;2023-02-28T10:12:57;4.60;49.20
5631;DHT22;2837;50.990;7.124;2023-02-28T10:15:26;4.70;49.60
5631;DHT22;2837;50.990;7.124;2023-02-28T10:18:05;4.70;49.80
5631;DHT22;2837;50.990;7.124;2023-02-28T10:20:37;4.70;48.80
5631;DHT22;2837;50.990;7.124;2023-02-28T10:23:17;4.70;48.50
5631;DHT22;2837;50.990;7.124;2023-02-28T10:25:54;4.80;49.80
5631;DHT22;2837;50.990;7.124;2023-02-28T10:28:20;4.80;48.90
5631;DHT22;2837;50.990;7.124;2023-02-28T10:30:48;4.80;49.20
5631;DHT22;2837;50.990;7.124;2023-02-28T10:33:24;4.80;48.60
5631;DHT22;2837;50.990;7.124;2023-02-28T10:35:51;4.90;49.20
5631;DHT22;2837;50.990;7.124;2023-02-28T10:38:32;4.90;48.80
5631;DHT22;2837;50.990;7.124;2023-02-28T10:41:14;4.90;49.00
5631;DHT22;2837;50.990;7.124;2023-02-28T10:43:41;4.90;49.30
5631;DHT22;2837;50.990;7.124;2023-02-28T10:48:41;5.00;48.90
5631;DHT22;2837;50.990;7.124;2023-02-28T10:51:16;5.10;49.40
5631;DHT22;2837;50.990;7.124;2023-02-28T11:01:40;5.40;49.80
5631;DHT22;2837;50.990;7.124;2023-02-28T11:07:02;5.40;49.40
5631;DHT22;2837;50.990;7.124;2023-02-28T11:09:39;5.40;49.10
5631;DHT22;2837;50.990;7.124;2023-02-28T11:12:07;5.40;49.10
5631;DHT22;2837;50.990;7.124;2023-02-28T11:14:46;5.40;48.80
5631;DHT22;2837;50.990;7.124;2023-02-28T11:17:18;5.40;48.80
5631;DHT22;2837;50.990;7.124;2023-02-28T11:19:47;5.40;49.10
5631;DHT22;2837;50.990;7.124;2023-02-28T11:22:21;5.30;48.80
5631;DHT22;2837;50.990;7.124;2023-02-28T11:24:52;5.30;49.40
5631;DHT22;2837;50.990;7.124;2023-02-28T11:29:57;5.30;49.30
5631;DHT22;2837;50.990;7.124;2023-02-28T11:32:29;5.40;49.20
5631;DHT22;2837;50.990;7.124;2023-02-28T11:37:41;5.40;48.30
5631;DHT22;2837;50.990;7.124;2023-02-28T11:40:38;5.40;47.70
5631;DHT22;2837;50.990;7.124;2023-02-28T11:55:09;5.50;47.90
5631;DHT22;2837;50.990;7.124;2023-02-28T11:58:14;5.50;47.50
5631;DHT22;2837;50.990;7.124;2023-02-28T12:06:30;6.00;48.40
5631;DHT22;2837;50.990;7.124;2023-02-28T12:12:04;5.70;47.30
5631;DHT22;2837;50.990;7.124;2023-02-28T12:17:28;5.70;47.40
5631;DHT22;2837;50.990;7.124;2023-02-28T12:20:27;5.70;48.60
5631;DHT22;2837;50.990;7.124;2023-02-28T12:25:58;5.80;47.80
5631;DHT22;2837;50.990;7.124;2023-02-28T12:28:30;5.80;48.00
5631;DHT22;2837;50.990;7.124;2023-02-28T12:31:09;5.80;47.60
5631;DHT22;2837;50.990;7.124;2023-02-28T12:33:42;5.80;47.70
5631;DHT22;2837;50.990;7.124;2023-02-28T12:36:16;5.80;47.60
5631;DHT22;2837;50.990;7.124;2023-02-28T12:38:45;5.90;48.40
5631;DHT22;2837;50.990;7.124;2023-02-28T12:44:08;6.00;48.10
5631;DHT22;2837;50.990;7.124;2023-02-28T12:46:41;6.00;48.70
5631;DHT22;2837;50.990;7.124;2023-02-28T12:49:19;6.00;47.50
5631;DHT22;2837;50.990;7.124;2023-02-28T12:51:47;6.00;48.20
5631;DHT22;2837;50.990;7.124;2023-02-28T12:57:06;6.10;48.10
5631;DHT22;2837;50.990;7.124;2023-02-28T12:59:48;6.10;47.00
5631;DHT22;2837;50.990;7.124;2023-02-28T13:04:47;6.10;48.10
5631;DHT22;2837;50.990;7.124;2023-02-28T13:10:07;6.30;48.20
5631;DHT22;2837;50.990;7.124;2023-02-28T13:12:33;6.30;49.40
5631;DHT22;2837;50.990;7.124;2023-02-28T13:15:08;6.40;48.80
5631;DHT22;2837;50.990;7.124;2023-02-28T13:17:41;6.40;48.30
5631;DHT22;2837;50.990;7.124;2023-02-28T13:20:21;6.50;48.20
5631;DHT22;2837;50.990;7.124;2023-02-28T13:22:50;6.50;48.50
5631;DHT22;2837;50.990;7.124;2023-02-28T13:27:49;6.50;47.50
5631;DHT22;2837;50.990;7.124;2023-02-28T13:35:48;6.50;46.80
5631;DHT22;2837;50.990;7.124;2023-02-28T13:38:34;6.50;47.10
5631;DHT22;2837;50.990;7.124;2023-02-28T13:49:25;6.50;46.60
5631;DHT22;2837;50.990;7.124;2023-02-28T13:52:21;6.40;47.50
5631;DHT22;2837;50.990;7.124;2023-02-28T14:00:35;6.50;47.50
5631;DHT22;2837;50.990;7.124;2023-02-28T14:09:16;6.50;48.10
5631;DHT22;2837;50.990;7.124;2023-02-28T14:11:44;6.50;48.20
5631;DHT22;2837;50.990;7.124;2023-02-28T14:17:00;6.70;48.80
5631;DHT22;2837;50.990;7.124;2023-02-28T14:19:29;6.70;46.50
5631;DHT22;2837;50.990;7.124;2023-02-28T14:30:11;6.70;46.50
5631;DHT22;2837;50.990;7.124;2023-02-28T14:38:57;6.80;46.40
5631;DHT22;2837;50.990;7.124;2023-02-28T14:41:34;6.80;47.00
5631;DHT22;2837;50.990;7.124;2023-02-28T14:44:13;6.80;47.50
5631;DHT22;2837;50.990;7.124;2023-02-28T14:46:40;6.80;47.20
5631;DHT22;2837;50.990;7.124;2023-02-28T14:49:20;6.90;48.20
5631;DHT22;2837;50.990;7.124;2023-02-28T14:51:49;6.90;48.20
5631;DHT22;2837;50.990;7.124;2023-02-28T14:54:16;6.90;47.20
5631;DHT22;2837;50.990;7.124;2023-02-28T14:56:48;6.90;47.30
5631;DHT22;2837;50.990;7.124;2023-02-28T14:59:28;6.90;47.30
5631;DHT22;2837;50.990;7.124;2023-02-28T15:02:21;6.90;48.10
5631;DHT22;2837;50.990;7.124;2023-02-28T15:05:02;6.90;47.20
5631;DHT22;2837;50.990;7.124;2023-02-28T15:07:36;6.90;46.50
5631;DHT22;2837;50.990;7.124;2023-02-28T15:10:13;6.90;46.40
5631;DHT22;2837;50.990;7.124;2023-02-28T15:12:40;6.90;46.70
5631;DHT22;2837;50.990;7.124;2023-02-28T15:15:15;6.90;46.50
5631;DHT22;2837;50.990;7.124;2023-02-28T15:17:46;6.90;46.50
5631;DHT22;2837;50.990;7.124;2023-02-28T15:20:15;6.90;47.10
5631;DHT22;2837;50.990;7.124;2023-02-28T15:22:41;6.90;46.80
5631;DHT22;2837;50.990;7.124;2023-02-28T15:25:10;6.90;46.60
5631;DHT22;2837;50.990;7.124;2023-02-28T15:27:44;6.90;46.70
5631;DHT22;2837;50.990;7.124;2023-02-28T15:30:20;6.90;47.60
5631;DHT22;2837;50.990;7.124;2023-02-28T15:33:02;6.90;47.20
5631;DHT22;2837;50.990;7.124;2023-02-28T15:35:30;6.90;46.30
5631;DHT22;2837;50.990;7.124;2023-02-28T15:40:26;6.80;46.70
5631;DHT22;2837;50.990;7.124;2023-02-28T15:46:15;6.90;47.80
5631;DHT22;2837;50.990;7.124;2023-02-28T15:48:37;6.90;47.70
5631;DHT22;2837;50.990;7.124;2023-02-28T15:51:08;6.90;47.40
5631;DHT22;2837;50.990;7.124;2023-02-28T15:54:02;6.90;47.40
5631;DHT22;2837;50.990;7.124;2023-02-28T15:56:50;6.90;47.20
5631;DHT22;2837;50.990;7.124;2023-02-28T15:59:27;6.80;47.10
5631;DHT22;2837;50.990;7.124;2023-02-28T16:04:35;6.80;46.90
5631;DHT22;2837;50.990;7.124;2023-02-28T16:07:04;6.80;47.30
5631;DHT22;2837;50.990;7.124;2023-02-28T16:09:29;6.70;47.50
5631;DHT22;2837;50.990;7.124;2023-02-28T16:11:59;6.70;47.80
5631;DHT22;2837;50.990;7.124;2023-02-28T16:14:27;6.70;48.60
5631;DHT22;2837;50.990;7.124;2023-02-28T16:16:57;6.70;47.90
5631;DHT22;2837;50.990;7.124;2023-02-28T16:19:27;6.80;47.70
5631;DHT22;2837;50.990;7.124;2023-02-28T16:21:52;6.70;47.60
5631;DHT22;2837;50.990;7.124;2023-02-28T16:24:18;6.70;46.90
5631;DHT22;2837;50.990;7.124;2023-02-28T16:26:46;6.60;47.40
5631;DHT22;2837;50.990;7.124;2023-02-28T16:31:48;6.70;47.60
5631;DHT22;2837;50.990;7.124;2023-02-28T16:34:13;6.60;47.80
5631;DHT22;2837;50.990;7.124;2023-02-28T16:36:39;6.60;48.00
5631;DHT22;2837;50.990;7.124;2023-02-28T16:39:05;6.60;48.20
5631;DHT22;2837;50.990;7.124;2023-02-28T16:41:31;6.60;48.00
5631;DHT22;2837;50.990;7.124;2023-02-28T16:43:59;6.50;48.10
5631;DHT22;2837;50.990;7.124;2023-02-28T16:46:33;6.60;47.90
5631;DHT22;2837;50.990;7.124;2023-02-28T16:48:59;6.50;48.00
5631;DHT22;2837;50.990;7.124;2023-02-28T16:51:24;6.50;48.10
5631;DHT22;2837;50.990;7.124;2023-02-28T16:53:50;6.50;48.20
5631;DHT22;2837;50.990;7.124;2023-02-28T16:56:21;6.40;48.00
5631;DHT22;2837;50.990;7.124;2023-02-28T16:58:48;6.40;48.50
5631;DHT22;2837;50.990;7.124;2023-02-28T17:01:14;6.40;48.60
5631;DHT22;2837;50.990;7.124;2023-02-28T17:03:40;6.30;48.60
5631;DHT22;2837;50.990;7.124;2023-02-28T17:06:12;6.30;48.60
5631;DHT22;2837;50.990;7.124;2023-02-28T17:08:41;6.30;48.80
5631;DHT22;2837;50.990;7.124;2023-02-28T17:11:07;6.20;49.00
5631;DHT22;2837;50.990;7.124;2023-02-28T17:13:33;6.20;49.50
5631;DHT22;2837;50.990;7.124;2023-02-28T17:15:59;6.20;49.90
5631;DHT22;2837;50.990;7.124;2023-02-28T17:18:25;6.10;49.80
5631;DHT22;2837;50.990;7.124;2023-02-28T17:20:52;6.10;49.80
5631;DHT22;2837;50.990;7.124;2023-02-28T17:23:17;6.00;50.00
5631;DHT22;2837;50.990;7.124;2023-02-28T17:25:43;6.10;50.20
5631;DHT22;2837;50.990;7.124;2023-02-28T17:28:19;6.10;50.20
5631;DHT22;2837;50.990;7.124;2023-02-28T17:30:44;6.10;50.20
5631;DHT22;2837;50.990;7.124;2023-02-28T17:33:12;5.90;50.90
5631;DHT22;2837;50.990;7.124;2023-02-28T17:35:38;5.90;51.60
5631;DHT22;2837;50.990;7.124;2023-02-28T17:38:04;5.70;51.80
5631;DHT22;2837;50.990;7.124;2023-02-28T17:40:29;5.70;51.80
5631;DHT22;2837;50.990;7.124;2023-02-28T17:42:55;5.70;52.10
5631;DHT22;2837;50.990;7.124;2023-02-28T17:45:22;5.80;53.10
5631;DHT22;2837;50.990;7.124;2023-02-28T17:47:49;5.60;53.30
5631;DHT22;2837;50.990;7.124;2023-02-28T17:50:21;5.50;53.80
5631;DHT22;2837;50.990;7.124;2023-02-28T17:52:47;5.40;54.10
5631;DHT22;2837;50.990;7.124;2023-02-28T17:55:13;5.40;54.50
5631;DHT22;2837;50.990;7.124;2023-02-28T17:57:39;5.40;54.20
5631;DHT22;2837;50.990;7.124;2023-02-28T18:00:07;5.40;53.30
5631;DHT22;2837;50.990;7.124;2023-02-28T18:02:33;5.40;54.10
5631;DHT22;2837;50.990;7.124;2023-02-28T18:04:59;5.30;54.50
5631;DHT22;2837;50.990;7.124;2023-02-28T18:07:25;5.20;55.10
5631;DHT22;2837;50.990;7.124;2023-02-28T18:09:50;5.20;55.20
5631;DHT22;2837;50.990;7.124;2023-02-28T18:12:16;5.20;55.70
5631;DHT22;2837;50.990;7.124;2023-02-28T18:14:42;5.10;56.00
5631;DHT22;2837;50.990;7.124;2023-02-28T18:17:09;5.10;56.30
5631;DHT22;2837;50.990;7.124;2023-02-28T18:19:37;5.00;57.00
5631;DHT22;2837;50.990;7.124;2023-02-28T18:22:03;4.90;57.00
5631;DHT22;2837;50.990;7.124;2023-02-28T18:24:31;4.90;57.30
5631;DHT22;2837;50.990;7.124;2023-02-28T18:26:57;4.80;57.50
5631;DHT22;2837;50.990;7.124;2023-02-28T18:29:25;4.70;57.40
5631;DHT22;2837;50.990;7.124;2023-02-28T18:31:51;4.70;57.90
5631;DHT22;2837;50.990;7.124;2023-02-28T18:34:17;4.70;58.20
5631;DHT22;2837;50.990;7.124;2023-02-28T18:36:43;4.70;58.20
5631;DHT22;2837;50.990;7.124;2023-02-28T18:39:11;4.60;58.40
5631;DHT22;2837;50.990;7.124;2023-02-28T18:41:37;4.60;59.40
5631;DHT22;2837;50.990;7.124;2023-02-28T18:44:03;4.60;58.90
5631;DHT22;2837;50.990;7.124;2023-02-28T18:46:29;4.60;59.00
5631;DHT22;2837;50.990;7.124;2023-02-28T18:48:55;4.50;59.20
5631;DHT22;2837;50.990;7.124;2023-02-28T18:51:23;4.50;59.50
5631;DHT22;2837;50.990;7.124;2023-02-28T18:53:49;4.40;59.70
5631;DHT22;2837;50.990;7.124;2023-02-28T18:56:16;4.40;59.80
5631;DHT22;2837;50.990;7.124;2023-02-28T18:58:43;4.40;60.40
5631;DHT22;2837;50.990;7.124;2023-02-28T19:01:28;4.40;60.20
5631;DHT22;2837;50.990;7.124;2023-02-28T19:03:55;4.40;60.50
5631;DHT22;2837;50.990;7.124;2023-02-28T19:06:21;4.30;60.40
5631;DHT22;2837;50.990;7.124;2023-02-28T19:08:51;4.30;61.00
5631;DHT22;2837;50.990;7.124;2023-02-28T19:11:18;4.30;61.00
5631;DHT22;2837;50.990;7.124;2023-02-28T19:13:44;4.30;61.60
5631;DHT22;2837;50.990;7.124;2023-02-28T19:16:13;4.20;61.90
5631;DHT22;2837;50.990;7.124;2023-02-28T19:18:39;4.20;62.20
5631;DHT22;2837;50.990;7.124;2023-02-28T19:21:09;4.20;63.00
5631;DHT22;2837;50.990;7.124;2023-02-28T19:23:36;4.30;62.80
5631;DHT22;2837;50.990;7.124;2023-02-28T19:26:06;4.20;63.10
5631;DHT22;2837;50.990;7.124;2023-02-28T19:28:32;4.10;64.10
5631;DHT22;2837;50.990;7.124;2023-02-28T19:30:57;4.10;65.30
5631;DHT22;2837;50.990;7.124;2023-02-28T19:33:23;4.00;65.10
5631;DHT22;2837;50.990;7.124;2023-02-28T19:35:48;4.00;66.60
5631;DHT22;2837;50.990;7.124;2023-02-28T19:38:14;4.00;68.10
5631;DHT22;2837;50.990;7.124;2023-02-28T19:40:40;3.90;71.60
5631;DHT22;2837;50.990;7.124;2023-02-28T19:43:06;4.00;71.80
5631;DHT22;2837;50.990;7.124;2023-02-28T19:45:33;3.90;72.10
5631;DHT22;2837;50.990;7.124;2023-02-28T19:47:59;3.90;73.60
5631;DHT22;2837;50.990;7.124;2023-02-28T19:50:24;3.90;75.90
5631;DHT22;2837;50.990;7.124;2023-02-28T19:52:50;3.90;76.80
5631;DHT22;2837;50.990;7.124;2023-02-28T19:55:16;3.90;80.00
5631;DHT22;2837;50.990;7.124;2023-02-28T19:57:42;3.90;76.70
5631;DHT22;2837;50.990;7.124;2023-02-28T20:00:10;3.90;84.40
5631;DHT22;2837;50.990;7.124;2023-02-28T20:02:36;3.90;78.40
5631;DHT22;2837;50.990;7.124;2023-02-28T20:05:02;3.90;81.50
5631;DHT22;2837;50.990;7.124;2023-02-28T20:07:28;3.80;83.10
5631;DHT22;2837;50.990;7.124;2023-02-28T20:09:53;3.80;80.90
5631;DHT22;2837;50.990;7.124;2023-02-28T20:12:19;3.70;90.90
5631;DHT22;2837;50.990;7.124;2023-02-28T20:14:48;3.70;90.50
5631;DHT22;2837;50.990;7.124;2023-02-28T20:17:14;3.70;96.00
5631;DHT22;2837;50.990;7.124;2023-02-28T20:19:39;3.80;90.80
5631;DHT22;2837;50.990;7.124;2023-02-28T20:22:05;3.80;94.00
5631;DHT22;2837;50.990;7.124;2023-02-28T20:24:32;3.90;90.40
5631;DHT22;2837;50.990;7.124;2023-02-28T20:26:58;3.70;97.20
5631;DHT22;2837;50.990;7.124;2023-02-28T20:29:23;3.70;98.00
5631;DHT22;2837;50.990;7.124;2023-02-28T20:31:49;3.60;96.30
5631;DHT22;2837;50.990;7.124;2023-02-28T20:34:14;3.70;97.40
5631;DHT22;2837;50.990;7.124;2023-02-28T20:36:42;3.70;95.30
5631;DHT22;2837;50.990;7.124;2023-02-28T20:39:08;3.70;91.10
5631;DHT22;2837;50.990;7.124;2023-02-28T20:41:33;3.70;93.40
5631;DHT22;2837;50.990;7.124;2023-02-28T20:43:59;3.60;99.90
5631;DHT22;2837;50.990;7.124;2023-02-28T20:46:26;3.60;95.20
5631;DHT22;2837;50.990;7.124;2023-02-28T20:48:52;3.50;99.50
5631;DHT22;2837;50.990;7.124;2023-02-28T20:51:18;3.50;99.90
5631;DHT22;2837;50.990;7.124;2023-02-28T20:53:44;3.40;99.90
5631;DHT22;2837;50.990;7.124;2023-02-28T20:56:12;3.50;99.90
5631;DHT22;2837;50.990;7.124;2023-02-28T20:58:38;3.50;99.90
5631;DHT22;2837;50.990;7.124;2023-02-28T21:01:09;3.60;99.90
5631;DHT22;2837;50.990;7.124;2023-02-28T21:03:46;3.50;99.90
5631;DHT22;2837;50.990;7.124;2023-02-28T21:06:13;3.50;99.90
5631;DHT22;2837;50.990;7.124;2023-02-28T21:08:40;3.50;99.90
5631;DHT22;2837;50.990;7.124;2023-02-28T21:11:11;3.50;99.90
5631;DHT22;2837;50.990;7.124;2023-02-28T21:13:38;3.50;99.90
5631;DHT22;2837;50.990;7.124;2023-02-28T21:16:05;3.40;99.90
5631;DHT22;2837;50.990;7.124;2023-02-28T21:18:33;3.50;99.90
5631;DHT22;2837;50.990;7.124;2023-02-28T21:21:07;3.40;99.90
5631;DHT22;2837;50.990;7.124;2023-02-28T21:23:33;4.40;99.90
5631;DHT22;2837;50.990;7.124;2023-02-28T21:26:07;3.50;99.90
5631;DHT22;2837;50.990;7.124;2023-02-28T21:28:33;3.40;99.90
5631;DHT22;2837;50.990;7.124;2023-02-28T21:31:02;3.40;99.90
5631;DHT22;2837;50.990;7.124;2023-02-28T21:33:28;3.40;99.90
5631;DHT22;2837;50.990;7.124;2023-02-28T21:36:09;3.40;99.90
5631;DHT22;2837;50.990;7.124;2023-02-28T21:38:36;3.40;99.90
5631;DHT22;2837;50.990;7.124;2023-02-28T21:41:07;3.30;99.90
5631;DHT22;2837;50.990;7.124;2023-02-28T21:43:33;3.30;99.90
5631;DHT22;2837;50.990;7.124;2023-02-28T21:46:04;3.30;99.90
5631;DHT22;2837;50.990;7.124;2023-02-28T21:48:30;3.30;99.90
5631;DHT22;2837;50.990;7.124;2023-02-28T21:51:01;3.30;99.90
5631;DHT22;2837;50.990;7.124;2023-02-28T21:53:31;3.30;99.90
5631;DHT22;2837;50.990;7.124;2023-02-28T21:56:07;3.20;99.90
5631;DHT22;2837;50.990;7.124;2023-02-28T21:58:35;3.20;99.90
